createdAt,value
2023-04-07T00:02:07.807Z,0.37
2023-04-07T00:04:34.956Z,0.33
2023-04-07T00:07:02.044Z,0.29
2023-04-07T00:09:29.185Z,0.22
2023-04-07T00:11:56.230Z,0.15
2023-04-07T00:14:23.376Z,0.09
2023-04-07T00:16:50.461Z,0.04
2023-04-07T00:19:17.909Z,0.02
2023-04-07T00:21:45.361Z,-0.02
2023-04-07T00:24:13.008Z,-0.05
2023-04-07T00:26:43.395Z,-0.07
2023-04-07T00:29:10.469Z,-0.09
2023-04-07T00:31:37.578Z,-0.11
2023-04-07T00:34:04.641Z,-0.13
2023-04-07T00:36:31.727Z,-0.16
2023-04-07T00:38:58.736Z,-0.18
2023-04-07T00:41:25.746Z,-0.22
2023-04-07T00:43:53.120Z,-0.25
2023-04-07T00:46:20.474Z,-0.26
2023-04-07T00:48:47.540Z,-0.31
2023-04-07T00:51:14.585Z,-0.34
2023-04-07T00:53:41.817Z,-0.36
2023-04-07T00:56:08.962Z,-0.39
2023-04-07T00:58:35.995Z,-0.42
2023-04-07T01:01:03.030Z,-0.45
2023-04-07T01:03:30.322Z,-0.48
2023-04-07T01:05:57.622Z,-0.51
2023-04-07T01:08:24.630Z,-0.53
2023-04-07T01:10:52.182Z,-0.55
2023-04-07T01:13:19.198Z,-0.57
2023-04-07T01:15:47.355Z,-0.60
2023-04-07T01:18:14.392Z,-0.63
2023-04-07T01:20:41.453Z,-0.65
2023-04-07T01:23:08.470Z,-0.68
2023-04-07T01:25:35.521Z,-0.69
2023-04-07T01:28:02.574Z,-0.72
2023-04-07T01:30:29.639Z,-0.75
2023-04-07T01:32:56.787Z,-0.76
2023-04-07T01:35:23.836Z,-0.80
2023-04-07T01:37:50.907Z,-0.83
2023-04-07T01:40:18.008Z,-0.87
2023-04-07T01:42:45.085Z,-0.89
2023-04-07T01:45:12.085Z,-0.92
2023-04-07T01:47:39.188Z,-0.95
2023-04-07T01:50:06.234Z,-0.98
2023-04-07T01:52:33.246Z,-1.00
2023-04-07T01:55:01.523Z,-1.03
2023-04-07T01:57:28.575Z,-1.05
2023-04-07T01:59:55.639Z,-1.08
2023-04-07T02:02:22.778Z,-1.11
2023-04-07T02:04:49.961Z,-1.13
2023-04-07T02:07:16.981Z,-1.15
2023-04-07T02:09:44.020Z,-1.17
2023-04-07T02:12:11.063Z,-1.19
2023-04-07T02:14:44.873Z,-1.22
2023-04-07T02:17:11.914Z,-1.25
2023-04-07T02:19:38.965Z,-1.27
2023-04-07T02:22:05.989Z,-1.30
2023-04-07T02:24:33.066Z,-1.33
2023-04-07T02:27:00.120Z,-1.34
2023-04-07T02:29:27.245Z,-1.37
2023-04-07T02:31:54.399Z,-1.39
2023-04-07T02:34:21.520Z,-1.41
2023-04-07T02:36:48.603Z,-1.44
2023-04-07T02:39:15.714Z,-1.46
2023-04-07T02:41:42.733Z,-1.47
2023-04-07T02:44:09.806Z,-1.50
2023-04-07T02:46:36.896Z,-1.52
2023-04-07T02:49:04.065Z,-1.54
2023-04-07T02:51:31.110Z,-1.56
2023-04-07T02:53:58.346Z,-1.58
2023-04-07T02:56:25.475Z,-1.60
2023-04-07T02:58:52.502Z,-1.63
2023-04-07T03:01:19.587Z,-1.64
2023-04-07T03:03:46.708Z,-1.69
2023-04-07T03:06:13.779Z,-1.70
2023-04-07T03:08:40.816Z,-1.71
2023-04-07T03:11:07.855Z,-1.71
2023-04-07T03:13:34.907Z,-1.72
2023-04-07T03:16:01.978Z,-1.74
2023-04-07T03:18:29.074Z,-1.73
2023-04-07T03:20:56.137Z,-1.75
2023-04-07T03:23:23.177Z,-1.79
2023-04-07T03:25:50.174Z,-1.76
2023-04-07T03:28:17.186Z,-1.77
2023-04-07T03:30:44.262Z,-1.78
2023-04-07T03:33:11.338Z,-1.79
2023-04-07T03:35:38.440Z,-1.81
2023-04-07T03:38:05.509Z,-1.79
2023-04-07T03:40:32.562Z,-1.81
2023-04-07T03:42:59.592Z,-1.81
2023-04-07T03:45:26.637Z,-1.83
2023-04-07T03:47:53.690Z,-1.83
2023-04-07T03:50:20.719Z,-1.84
2023-04-07T03:52:47.798Z,-1.85
2023-04-07T03:55:16.074Z,-1.86
2023-04-07T03:57:43.106Z,-1.87
2023-04-07T04:00:10.170Z,-1.88
2023-04-07T04:02:37.272Z,-1.89
2023-04-07T04:05:04.391Z,-1.91
2023-04-07T04:07:31.433Z,-1.93
2023-04-07T04:09:58.474Z,-1.93
2023-04-07T04:12:25.509Z,-1.95
2023-04-07T04:14:52.560Z,-1.96
2023-04-07T04:17:19.581Z,-1.99
2023-04-07T04:19:46.620Z,-2.00
2023-04-07T04:22:14.674Z,-2.02
2023-04-07T04:24:51.668Z,-2.04
2023-04-07T04:27:18.668Z,-2.07
2023-04-07T04:29:45.993Z,-2.08
2023-04-07T04:32:13.036Z,-2.11
2023-04-07T04:34:40.015Z,-2.12
2023-04-07T04:37:07.037Z,-2.15
2023-04-07T04:39:34.073Z,-2.16
2023-04-07T04:42:01.083Z,-2.18
2023-04-07T04:44:28.089Z,-2.19
2023-04-07T04:46:55.118Z,-2.19
2023-04-07T04:49:22.120Z,-2.21
2023-04-07T04:51:49.102Z,-2.24
2023-04-07T04:54:16.129Z,-2.24
2023-04-07T04:56:43.140Z,-2.25
2023-04-07T04:59:10.148Z,-2.27
2023-04-07T05:01:37.196Z,-2.30
2023-04-07T05:04:04.338Z,-2.31
2023-04-07T05:06:31.412Z,-2.29
2023-04-07T05:08:58.423Z,-2.22
2023-04-07T05:33:28.058Z,-0.68
2023-04-07T05:35:55.170Z,-0.63
2023-04-07T05:38:22.250Z,-0.63
2023-04-07T05:40:49.280Z,-0.66
2023-04-07T05:43:16.359Z,-0.70
2023-04-07T05:45:43.434Z,-0.74
2023-04-07T05:48:10.574Z,-0.80
2023-04-07T05:50:37.771Z,-0.85
2023-04-07T05:53:04.932Z,-0.90
2023-04-07T05:55:32.001Z,-0.95
2023-04-07T05:57:59.060Z,-0.98
2023-04-07T06:00:26.128Z,-1.02
2023-04-07T06:02:53.585Z,-1.04
2023-04-07T06:05:20.817Z,-1.06
2023-04-07T06:07:47.889Z,-1.08
2023-04-07T06:10:15.086Z,-1.07
2023-04-07T06:12:42.151Z,-1.09
2023-04-07T06:15:09.252Z,-1.07
2023-04-07T06:17:40.409Z,-1.06
2023-04-07T06:20:07.620Z,-1.06
2023-04-07T06:22:34.886Z,-1.04
2023-04-07T06:25:02.074Z,-1.02
2023-04-07T06:27:29.156Z,-0.98
2023-04-07T06:29:56.207Z,-0.94
2023-04-07T06:32:23.307Z,-0.88
2023-04-07T06:34:50.400Z,-0.84
2023-04-07T06:37:17.504Z,-0.73
2023-04-07T06:39:44.630Z,-0.63
2023-04-07T06:42:11.755Z,-0.50
2023-04-07T06:44:38.789Z,-0.35
2023-04-07T06:47:05.955Z,-0.19
2023-04-07T06:49:34.225Z,-0.03
2023-04-07T06:52:02.190Z,0.14
2023-04-07T06:54:29.428Z,0.36
2023-04-07T06:56:56.507Z,0.56
2023-04-07T06:59:23.554Z,0.77
2023-04-07T07:01:50.660Z,0.99
2023-04-07T07:04:20.492Z,1.23
2023-04-07T07:06:47.665Z,1.47
2023-04-07T07:09:14.835Z,1.72
2023-04-07T07:11:41.927Z,1.99
2023-04-07T07:14:08.967Z,2.25
2023-04-07T07:16:35.977Z,2.52
2023-04-07T07:19:03.042Z,2.81
2023-04-07T07:21:30.052Z,3.09
2023-04-07T07:23:57.105Z,3.39
2023-04-07T07:26:24.138Z,3.68
2023-04-07T07:28:51.216Z,3.96
2023-04-07T07:31:18.763Z,4.28
2023-04-07T07:33:46.381Z,4.57
2023-04-07T07:36:13.828Z,4.87
2023-04-07T07:38:40.925Z,5.18
2023-04-07T07:41:07.999Z,5.47
2023-04-07T07:43:35.046Z,5.78
2023-04-07T07:46:02.171Z,6.08
2023-04-07T07:48:29.304Z,6.39
2023-04-07T07:50:56.422Z,6.70
2023-04-07T07:53:23.480Z,7.05
2023-04-07T07:55:50.548Z,7.48
2023-04-07T07:58:17.602Z,7.91
2023-04-07T08:00:44.689Z,8.36
2023-04-07T08:03:11.808Z,8.83
2023-04-07T08:05:38.951Z,9.27
2023-04-07T08:08:06.014Z,9.70
2023-04-07T08:10:33.114Z,10.14
2023-04-07T08:13:00.204Z,10.56
2023-04-07T08:15:27.252Z,10.97
2023-04-07T08:17:56.066Z,11.36
2023-04-07T08:20:23.579Z,11.74
2023-04-07T08:22:50.701Z,12.08
2023-04-07T08:25:17.756Z,12.42
2023-04-07T08:27:44.797Z,12.76
2023-04-07T08:30:11.968Z,13.07
2023-04-07T08:32:39.169Z,13.40
2023-04-07T08:35:06.256Z,13.71
2023-04-07T08:37:33.363Z,14.01
2023-04-07T08:40:00.461Z,14.30
2023-04-07T08:42:27.638Z,14.59
2023-04-07T08:44:54.703Z,14.88
2023-04-07T08:47:21.818Z,15.14
2023-04-07T08:49:48.869Z,15.39
2023-04-07T08:52:15.966Z,15.67
2023-04-07T08:54:43.036Z,15.93
2023-04-07T08:57:10.130Z,16.19
2023-04-07T08:59:37.188Z,16.46
2023-04-07T09:02:04.312Z,16.70
2023-04-07T09:04:31.532Z,16.93
2023-04-07T09:06:58.797Z,17.17
2023-04-07T09:09:27.936Z,17.41
2023-04-07T09:11:55.340Z,17.65
2023-04-07T09:14:22.408Z,17.89
2023-04-07T09:16:49.542Z,18.13
2023-04-07T09:19:16.664Z,18.35
2023-04-07T09:21:43.750Z,18.57
2023-04-07T09:24:10.853Z,18.78
2023-04-07T09:26:38.018Z,19.00
2023-04-07T09:29:05.186Z,19.17
2023-04-07T09:31:32.603Z,19.28
2023-04-07T09:33:59.758Z,19.34
2023-04-07T09:36:26.822Z,19.40
2023-04-07T09:39:12.625Z,19.44
2023-04-07T09:41:39.806Z,19.48
2023-04-07T09:44:08.055Z,19.52
2023-04-07T09:46:44.451Z,19.56
2023-04-07T09:49:11.580Z,19.62
2023-04-07T09:51:38.632Z,19.67
2023-04-07T09:54:07.437Z,19.74
2023-04-07T09:56:34.529Z,19.82
2023-04-07T09:59:11.720Z,19.88
2023-04-07T10:01:40.318Z,19.95
2023-04-07T10:04:12.020Z,20.01
2023-04-07T10:06:39.143Z,20.08
2023-04-07T10:09:06.208Z,20.14
2023-04-07T10:11:33.298Z,20.19
2023-04-07T10:14:00.350Z,20.25
2023-04-07T10:16:27.505Z,20.31
2023-04-07T10:18:54.584Z,20.36
2023-04-07T10:21:21.629Z,20.42
2023-04-07T10:23:48.989Z,20.45
2023-04-07T10:26:16.600Z,20.49
2023-04-07T10:28:49.805Z,20.52
2023-04-07T10:31:16.990Z,20.53
2023-04-07T10:33:44.147Z,20.50
2023-04-07T10:36:11.384Z,20.46
2023-04-07T10:38:38.498Z,20.42
2023-04-07T10:41:06.062Z,20.37
2023-04-07T10:43:50.297Z,20.31
2023-04-07T10:46:28.437Z,20.22
2023-04-07T10:49:15.742Z,20.11
2023-04-07T10:51:45.196Z,20.01
2023-04-07T10:54:12.387Z,19.89
2023-04-07T10:56:39.535Z,19.76
2023-04-07T10:59:06.661Z,19.66
2023-04-07T11:01:33.810Z,19.53
2023-04-07T11:04:01.455Z,19.40
2023-04-07T11:06:28.844Z,19.26
2023-04-07T11:08:56.035Z,19.13
2023-04-07T11:11:23.677Z,18.97
2023-04-07T11:13:51.566Z,18.83
2023-04-07T11:16:18.887Z,18.69
2023-04-07T11:18:45.985Z,18.54
2023-04-07T11:21:13.081Z,18.39
2023-04-07T11:23:40.207Z,18.26
2023-04-07T11:26:07.314Z,18.12
2023-04-07T11:28:34.408Z,17.99
2023-04-07T11:31:01.861Z,17.87
2023-04-07T11:33:29.043Z,17.73
2023-04-07T11:35:56.407Z,17.60
2023-04-07T11:38:23.657Z,17.49
2023-04-07T11:40:50.718Z,17.38
2023-04-07T11:43:17.877Z,17.27
2023-04-07T11:45:44.998Z,17.18
2023-04-07T11:48:12.211Z,17.08
2023-04-07T11:50:39.300Z,16.99
2023-04-07T11:53:06.655Z,16.91
2023-04-07T11:55:33.748Z,16.83
2023-04-07T11:58:00.979Z,16.77
2023-04-07T12:00:28.164Z,16.71
2023-04-07T12:02:55.471Z,16.65
2023-04-07T12:05:22.819Z,16.60
2023-04-07T12:07:50.614Z,16.56
2023-04-07T12:10:17.772Z,16.52
2023-04-07T12:12:49.870Z,16.50
2023-04-07T12:15:16.940Z,16.48
2023-04-07T12:17:44.247Z,16.47
2023-04-07T12:20:11.382Z,16.42
2023-04-07T12:22:38.499Z,16.40
2023-04-07T12:25:05.603Z,16.40
2023-04-07T12:27:42.667Z,16.40
2023-04-07T12:30:10.645Z,16.38
2023-04-07T12:32:40.042Z,16.38
2023-04-07T12:35:07.377Z,16.38
2023-04-07T12:37:34.488Z,16.38
2023-04-07T12:40:01.658Z,16.37
2023-04-07T12:42:28.806Z,16.36
2023-04-07T12:44:55.889Z,16.34
2023-04-07T12:47:23.806Z,16.31
2023-04-07T12:49:51.068Z,16.31
2023-04-07T12:52:18.235Z,16.30
2023-04-07T12:54:45.471Z,16.29
2023-04-07T12:57:13.183Z,16.28
2023-04-07T12:59:40.297Z,16.27
2023-04-07T13:02:07.574Z,16.28
2023-04-07T13:04:35.093Z,16.28
2023-04-07T13:07:02.356Z,16.28
2023-04-07T13:09:29.432Z,16.28
2023-04-07T13:11:56.587Z,16.27
2023-04-07T13:14:23.727Z,16.28
2023-04-07T13:16:51.014Z,16.28
2023-04-07T13:19:18.128Z,16.28
2023-04-07T13:21:46.564Z,16.28
2023-04-07T13:24:14.811Z,16.27
2023-04-07T13:26:41.880Z,16.26
2023-04-07T13:29:08.973Z,16.27
2023-04-07T13:31:36.167Z,16.24
2023-04-07T13:34:03.289Z,16.23
2023-04-07T13:36:30.490Z,16.22
2023-04-07T13:38:57.610Z,16.21
2023-04-07T13:41:24.775Z,16.19
2023-04-07T13:43:52.219Z,16.19
2023-04-07T13:48:49.634Z,16.13
2023-04-07T13:51:16.734Z,16.11
2023-04-07T13:53:43.828Z,16.07
2023-04-07T13:56:10.922Z,16.04
2023-04-07T13:58:38.494Z,16.01
2023-04-07T14:01:05.667Z,15.97
2023-04-07T14:03:32.875Z,15.93
2023-04-07T14:06:00.135Z,15.89
2023-04-07T14:08:27.274Z,15.86
2023-04-07T14:10:54.549Z,15.81
2023-04-07T14:15:48.626Z,15.73
2023-04-07T14:18:17.782Z,15.70
2023-04-07T14:20:44.868Z,15.66
2023-04-07T14:23:11.999Z,15.63
2023-04-07T14:25:39.104Z,15.60
2023-04-07T14:28:06.270Z,15.55
2023-04-07T14:30:33.505Z,15.50
2023-04-07T14:33:01.928Z,15.45
2023-04-07T14:35:30.308Z,15.42
2023-04-07T14:37:57.679Z,15.38
2023-04-07T14:40:24.917Z,15.33
2023-04-07T14:45:21.740Z,15.27
2023-04-07T14:47:48.936Z,15.22
2023-04-07T14:50:17.672Z,15.18
2023-04-07T14:52:44.820Z,15.16
2023-04-07T14:55:13.816Z,15.10
2023-04-07T14:57:40.900Z,15.07
2023-04-07T15:00:08.034Z,15.04
2023-04-07T15:02:35.266Z,15.03
2023-04-07T15:05:02.642Z,15.01
2023-04-07T15:07:29.719Z,15.00
2023-04-07T15:09:56.836Z,14.99
2023-04-07T15:12:23.968Z,15.00
2023-04-07T15:14:51.097Z,14.99
2023-04-07T15:17:18.174Z,15.00
2023-04-07T15:19:45.297Z,14.95
2023-04-07T15:22:12.395Z,14.92
2023-04-07T15:24:39.499Z,14.90
2023-04-07T15:27:06.671Z,14.89
2023-04-07T15:29:33.758Z,14.84
2023-04-07T15:32:00.997Z,14.84
2023-04-07T15:34:28.133Z,14.85
2023-04-07T15:36:55.301Z,14.86
2023-04-07T15:39:22.360Z,14.88
2023-04-07T15:41:49.472Z,14.90
2023-04-07T15:44:16.597Z,14.90
2023-04-07T15:46:43.705Z,14.91
2023-04-07T15:49:11.063Z,14.92
2023-04-07T15:51:38.284Z,14.91
2023-04-07T15:54:05.483Z,14.85
2023-04-07T15:56:33.852Z,14.82
2023-04-07T15:59:00.984Z,14.75
2023-04-07T16:01:28.351Z,14.71
2023-04-07T16:03:55.572Z,14.70
2023-04-07T16:06:22.836Z,14.68
2023-04-07T16:08:50.303Z,14.70
2023-04-07T16:11:17.521Z,14.71
2023-04-07T16:13:44.620Z,14.71
2023-04-07T16:16:13.726Z,14.71
2023-04-07T16:18:40.885Z,14.73
2023-04-07T16:21:07.983Z,14.76
2023-04-07T16:23:35.377Z,14.78
2023-04-07T16:26:02.536Z,14.78
2023-04-07T16:28:29.642Z,14.78
2023-04-07T16:30:56.742Z,14.80
2023-04-07T16:33:25.947Z,14.79
2023-04-07T16:35:53.451Z,14.80
2023-04-07T16:38:20.580Z,14.77
2023-04-07T16:41:02.703Z,14.76
2023-04-07T16:43:30.745Z,14.74
2023-04-07T16:45:57.927Z,14.63
2023-04-07T16:48:25.029Z,14.54
2023-04-07T16:50:52.172Z,14.47
2023-04-07T16:53:21.296Z,14.37
2023-04-07T16:55:49.188Z,14.34
2023-04-07T16:58:16.329Z,14.29
2023-04-07T17:00:43.425Z,14.20
2023-04-07T17:03:10.788Z,14.12
2023-04-07T17:05:37.981Z,14.06
2023-04-07T17:08:05.116Z,13.99
2023-04-07T17:10:32.278Z,13.94
2023-04-07T17:12:59.416Z,13.89
2023-04-07T17:15:26.568Z,13.83
2023-04-07T17:17:53.743Z,13.72
2023-04-07T17:20:20.986Z,13.62
2023-04-07T17:22:48.053Z,13.52
2023-04-07T17:25:15.824Z,13.45
2023-04-07T17:27:44.322Z,13.40
2023-04-07T17:30:11.710Z,13.34
2023-04-07T17:32:38.873Z,13.25
2023-04-07T17:35:06.004Z,13.16
2023-04-07T17:37:33.289Z,13.09
2023-04-07T17:40:00.365Z,13.00
2023-04-07T17:42:27.521Z,12.94
2023-04-07T17:44:54.697Z,12.85
2023-04-07T17:47:21.827Z,12.77
2023-04-07T17:49:48.957Z,12.66
2023-04-07T17:52:16.122Z,12.59
2023-04-07T17:54:43.279Z,12.48
2023-04-07T17:57:10.438Z,12.40
2023-04-07T17:59:37.584Z,12.28
2023-04-07T18:02:04.814Z,12.21
2023-04-07T18:04:32.162Z,12.12
2023-04-07T18:07:03.412Z,12.01
2023-04-07T18:09:35.704Z,11.88
2023-04-07T18:12:12.818Z,11.73
2023-04-07T18:14:49.985Z,11.56
2023-04-07T18:17:27.238Z,11.42
2023-04-07T18:20:04.514Z,11.27
2023-04-07T18:22:31.663Z,11.13
2023-04-07T18:25:00.537Z,11.00
2023-04-07T18:27:27.656Z,10.87
2023-04-07T18:29:54.774Z,10.75
2023-04-07T18:32:25.227Z,10.64
2023-04-07T18:35:00.346Z,10.54
2023-04-07T18:37:29.338Z,10.43
2023-04-07T18:39:56.523Z,10.32
2023-04-07T18:42:23.624Z,10.24
2023-04-07T18:44:50.696Z,10.17
2023-04-07T18:47:17.817Z,10.10
2023-04-07T18:49:44.893Z,10.02
2023-04-07T18:52:12.054Z,9.95
2023-04-07T18:54:39.151Z,9.84
2023-04-07T18:57:06.905Z,9.72
2023-04-07T18:59:34.034Z,9.61
2023-04-07T19:02:05.239Z,9.47
2023-04-07T19:04:37.914Z,9.35
2023-04-07T19:07:07.629Z,9.23
2023-04-07T19:09:38.099Z,9.16
2023-04-07T19:12:15.292Z,9.11
2023-04-07T19:14:42.502Z,9.06
2023-04-07T19:17:11.409Z,9.00
2023-04-07T19:19:46.962Z,8.95
2023-04-07T19:22:21.419Z,8.89
2023-04-07T19:24:48.531Z,8.84
2023-04-07T19:27:18.624Z,8.79
2023-04-07T19:29:55.685Z,8.73
2023-04-07T19:32:30.868Z,8.67
2023-04-07T19:35:00.938Z,8.62
2023-04-07T19:37:32.993Z,8.57
2023-04-07T19:40:06.683Z,8.50
2023-04-07T19:42:40.109Z,8.45
2023-04-07T19:45:10.000Z,8.35
2023-04-07T19:47:38.944Z,8.29
2023-04-07T19:50:08.863Z,8.23
2023-04-07T19:52:44.910Z,8.16
2023-04-07T19:55:12.381Z,8.09
2023-04-07T19:57:41.641Z,8.04
2023-04-07T20:00:11.213Z,7.97
2023-04-07T20:02:38.491Z,7.89
2023-04-07T20:05:08.432Z,7.82
2023-04-07T20:07:35.565Z,7.73
2023-04-07T20:10:07.179Z,7.62
2023-04-07T20:12:34.322Z,7.53
2023-04-07T20:15:01.488Z,7.43
2023-04-07T20:17:28.621Z,7.30
2023-04-07T20:19:55.729Z,7.18
2023-04-07T20:22:22.842Z,7.09
2023-04-07T20:24:49.885Z,6.99
2023-04-07T20:27:16.966Z,6.90
2023-04-07T20:29:44.472Z,6.85
2023-04-07T20:32:11.906Z,6.79
2023-04-07T20:34:38.939Z,6.76
2023-04-07T20:37:05.965Z,6.72
2023-04-07T20:39:33.041Z,6.70
2023-04-07T20:42:00.114Z,6.65
2023-04-07T20:44:27.192Z,6.61
2023-04-07T20:46:54.213Z,6.56
2023-04-07T20:49:21.224Z,6.50
2023-04-07T20:51:50.520Z,6.47
2023-04-07T20:54:17.568Z,6.42
2023-04-07T20:56:44.623Z,6.36
2023-04-07T20:59:11.747Z,6.31
2023-04-07T21:01:38.989Z,6.26
2023-04-07T21:04:06.302Z,6.22
2023-04-07T21:06:33.399Z,6.16
2023-04-07T21:09:00.446Z,6.11
2023-04-07T21:11:27.471Z,6.03
2023-04-07T21:13:54.512Z,5.98
2023-04-07T21:16:21.816Z,5.93
2023-04-07T21:18:49.164Z,5.90
2023-04-07T21:21:16.304Z,5.86
2023-04-07T21:23:45.697Z,5.82
2023-04-07T21:26:12.693Z,5.77
2023-04-07T21:28:39.695Z,5.73
2023-04-07T21:31:06.813Z,5.69
2023-04-07T21:33:33.851Z,5.62
2023-04-07T21:36:01.021Z,5.58
2023-04-07T21:38:28.105Z,5.53
2023-04-07T21:40:55.113Z,5.50
2023-04-07T21:43:22.167Z,5.47
2023-04-07T21:45:49.184Z,5.47
2023-04-07T21:48:16.257Z,5.47
2023-04-07T21:50:43.286Z,5.45
2023-04-07T21:53:10.308Z,5.43
2023-04-07T21:55:37.370Z,5.39
2023-04-07T21:58:04.411Z,5.35
2023-04-07T22:00:35.734Z,5.34
2023-04-07T22:03:02.856Z,5.32
2023-04-07T22:05:30.092Z,5.29
2023-04-07T22:07:57.112Z,5.26
2023-04-07T22:10:24.968Z,5.22
2023-04-07T22:12:51.993Z,5.18
2023-04-07T22:15:19.032Z,5.15
2023-04-07T22:17:46.121Z,5.10
2023-04-07T22:20:13.169Z,5.05
2023-04-07T22:22:40.196Z,5.01
2023-04-07T22:25:07.239Z,5.00
2023-04-07T22:27:34.253Z,4.98
2023-04-07T22:30:01.280Z,4.95
2023-04-07T22:32:28.416Z,4.92
2023-04-07T22:34:55.507Z,4.91
2023-04-07T22:37:22.563Z,4.90
2023-04-07T22:39:49.620Z,4.89
2023-04-07T22:42:16.651Z,4.86
2023-04-07T22:44:43.714Z,4.86
2023-04-07T22:47:10.794Z,4.84
2023-04-07T22:49:37.827Z,4.82
2023-04-07T22:52:04.857Z,4.80
2023-04-07T22:54:31.861Z,4.77
2023-04-07T22:56:58.897Z,4.74
2023-04-07T22:59:25.900Z,4.71
2023-04-07T23:01:53.345Z,4.69
2023-04-07T23:04:21.243Z,4.66
2023-04-07T23:06:48.260Z,4.64
2023-04-07T23:09:15.252Z,4.62
2023-04-07T23:11:42.341Z,4.60
2023-04-07T23:14:09.361Z,4.60
2023-04-07T23:16:36.529Z,4.59
2023-04-07T23:19:03.650Z,4.59
2023-04-07T23:21:31.577Z,4.56
2023-04-07T23:23:58.750Z,4.53
2023-04-07T23:26:25.815Z,4.50
2023-04-07T23:28:52.879Z,4.49
2023-04-07T23:31:20.113Z,4.46
2023-04-07T23:33:47.228Z,4.44
2023-04-07T23:36:14.253Z,4.40
2023-04-07T23:38:41.256Z,4.35
2023-04-07T23:41:08.269Z,4.33
2023-04-07T23:43:35.299Z,4.33
2023-04-07T23:46:02.487Z,4.33
2023-04-07T23:48:29.593Z,4.34
2023-04-07T23:50:56.630Z,4.35
2023-04-07T23:53:23.652Z,4.32
2023-04-07T23:55:50.719Z,4.33
2023-04-07T23:58:17.727Z,4.33
